sensor_id;sensor_type;location;lat;lon;timestamp;pressure;altitude;pressure_sealevel;temperature;humidity
9935;BME280;5006;41.828;23.478;2022-08-03T00:00:24;90496.50;;;18.63;73.85
9935;BME280;5006;41.828;23.478;2022-08-03T00:01:30;90496.81;;;18.53;74.92
9935;BME280;5006;41.828;23.478;2022-08-03T00:02:34;90501.03;;;18.95;74.34
9935;BME280;5006;41.828;23.478;2022-08-03T00:03:40;90503.31;;;18.96;74.27
9935;BME280;5006;41.828;23.478;2022-08-03T00:04:49;90499.19;;;18.92;74.26
9935;BME280;5006;41.828;23.478;2022-08-03T00:05:58;90498.56;;;19.13;73.92
9935;BME280;5006;41.828;23.478;2022-08-03T00:07:04;90491.97;;;19.26;72.40
9935;BME280;5006;41.828;23.478;2022-08-03T00:08:11;90491.88;;;19.30;72.85
9935;BME280;5006;41.828;23.478;2022-08-03T00:09:16;90494.53;;;19.05;73.82
9935;BME280;5006;41.828;23.478;2022-08-03T00:10:22;90499.69;;;19.28;72.84
9935;BME280;5006;41.828;23.478;2022-08-03T00:11:26;90492.06;;;19.23;72.95
9935;BME280;5006;41.828;23.478;2022-08-03T00:12:32;90488.56;;;19.10;73.70
9935;BME280;5006;41.828;23.478;2022-08-03T00:13:37;90492.16;;;19.07;73.15
9935;BME280;5006;41.828;23.478;2022-08-03T00:14:43;90482.84;;;19.58;72.18
9935;BME280;5006;41.828;23.478;2022-08-03T00:15:48;90485.75;;;19.51;71.98
9935;BME280;5006;41.828;23.478;2022-08-03T00:16:54;90490.53;;;19.34;72.71
9935;BME280;5006;41.828;23.478;2022-08-03T00:17:59;90491.53;;;19.53;72.10
9935;BME280;5006;41.828;23.478;2022-08-03T00:19:04;90489.44;;;19.69;70.98
9935;BME280;5006;41.828;23.478;2022-08-03T00:20:10;90490.09;;;19.85;70.56
9935;BME280;5006;41.828;23.478;2022-08-03T00:21:15;90492.34;;;19.99;69.82
9935;BME280;5006;41.828;23.478;2022-08-03T00:22:23;90496.72;;;19.84;69.89
9935;BME280;5006;41.828;23.478;2022-08-03T00:23:28;90488.13;;;19.73;70.14
9935;BME280;5006;41.828;23.478;2022-08-03T00:24:34;90489.75;;;19.83;69.80
9935;BME280;5006;41.828;23.478;2022-08-03T00:25:40;90497.25;;;19.92;69.34
9935;BME280;5006;41.828;23.478;2022-08-03T00:26:45;90488.31;;;19.91;69.38
9935;BME280;5006;41.828;23.478;2022-08-03T00:27:50;90490.94;;;20.07;68.71
9935;BME280;5006;41.828;23.478;2022-08-03T00:28:56;90490.69;;;20.14;68.49
9935;BME280;5006;41.828;23.478;2022-08-03T00:30:02;90490.06;;;19.98;69.30
9935;BME280;5006;41.828;23.478;2022-08-03T00:31:08;90485.25;;;20.14;69.08
9935;BME280;5006;41.828;23.478;2022-08-03T00:32:13;90492.47;;;20.08;69.00
9935;BME280;5006;41.828;23.478;2022-08-03T00:33:18;90487.47;;;19.94;69.33
9935;BME280;5006;41.828;23.478;2022-08-03T00:34:24;90488.47;;;19.75;70.23
9935;BME280;5006;41.828;23.478;2022-08-03T00:35:29;90485.84;;;19.84;69.74
9935;BME280;5006;41.828;23.478;2022-08-03T00:36:35;90488.00;;;19.89;70.11
9935;BME280;5006;41.828;23.478;2022-08-03T00:37:41;90489.34;;;19.48;70.33
9935;BME280;5006;41.828;23.478;2022-08-03T00:38:47;90493.41;;;19.31;71.58
9935;BME280;5006;41.828;23.478;2022-08-03T00:39:51;90492.09;;;19.35;71.20
9935;BME280;5006;41.828;23.478;2022-08-03T00:40:57;90488.22;;;19.08;72.06
9935;BME280;5006;41.828;23.478;2022-08-03T00:42:02;90492.88;;;19.07;72.62
9935;BME280;5006;41.828;23.478;2022-08-03T00:43:08;90491.59;;;19.12;73.74
9935;BME280;5006;41.828;23.478;2022-08-03T00:44:13;90498.84;;;19.56;71.15
9935;BME280;5006;41.828;23.478;2022-08-03T00:45:19;90498.34;;;19.82;70.47
9935;BME280;5006;41.828;23.478;2022-08-03T00:46:25;90487.72;;;19.75;70.34
9935;BME280;5006;41.828;23.478;2022-08-03T00:47:30;90498.28;;;19.36;71.61
9935;BME280;5006;41.828;23.478;2022-08-03T00:48:36;90490.88;;;19.49;71.97
9935;BME280;5006;41.828;23.478;2022-08-03T00:49:41;90497.84;;;19.62;71.68
9935;BME280;5006;41.828;23.478;2022-08-03T00:50:46;90494.25;;;19.65;71.03
9935;BME280;5006;41.828;23.478;2022-08-03T00:51:51;90495.75;;;19.78;70.51
9935;BME280;5006;41.828;23.478;2022-08-03T00:52:58;90498.72;;;19.72;71.00
9935;BME280;5006;41.828;23.478;2022-08-03T00:54:04;90495.53;;;19.73;70.70
9935;BME280;5006;41.828;23.478;2022-08-03T00:55:09;90494.25;;;19.53;72.33
9935;BME280;5006;41.828;23.478;2022-08-03T00:56:16;90495.00;;;19.41;71.43
9935;BME280;5006;41.828;23.478;2022-08-03T00:57:21;90498.81;;;18.65;74.11
9935;BME280;5006;41.828;23.478;2022-08-03T00:58:26;90502.03;;;18.15;77.26
9935;BME280;5006;41.828;23.478;2022-08-03T00:59:32;90498.03;;;18.36;77.23
9935;BME280;5006;41.828;23.478;2022-08-03T01:00:38;90493.41;;;18.20;78.05
9935;BME280;5006;41.828;23.478;2022-08-03T01:01:44;90493.72;;;18.22;77.96
9935;BME280;5006;41.828;23.478;2022-08-03T01:02:50;90500.22;;;18.25;78.22
9935;BME280;5006;41.828;23.478;2022-08-03T01:03:56;90496.19;;;18.17;78.89
9935;BME280;5006;41.828;23.478;2022-08-03T01:05:00;90503.56;;;18.32;78.57
9935;BME280;5006;41.828;23.478;2022-08-03T01:06:14;90498.28;;;18.25;77.90
9935;BME280;5006;41.828;23.478;2022-08-03T01:07:26;90495.84;;;18.31;78.47
9935;BME280;5006;41.828;23.478;2022-08-03T01:08:42;90491.75;;;18.23;78.75
9935;BME280;5006;41.828;23.478;2022-08-03T01:09:53;90494.16;;;18.21;79.86
9935;BME280;5006;41.828;23.478;2022-08-03T01:11:06;90496.28;;;18.29;78.27
9935;BME280;5006;41.828;23.478;2022-08-03T01:12:17;90496.44;;;18.22;78.16
9935;BME280;5006;41.828;23.478;2022-08-03T01:13:30;90492.59;;;18.36;77.43
9935;BME280;5006;41.828;23.478;2022-08-03T01:14:45;90497.56;;;18.09;79.79
9935;BME280;5006;41.828;23.478;2022-08-03T01:15:58;90502.28;;;18.37;78.80
9935;BME280;5006;41.828;23.478;2022-08-03T01:17:12;90492.44;;;18.55;78.14
9935;BME280;5006;41.828;23.478;2022-08-03T01:18:30;90495.91;;;18.27;80.40
9935;BME280;5006;41.828;23.478;2022-08-03T01:19:43;90494.50;;;18.07;81.04
9935;BME280;5006;41.828;23.478;2022-08-03T01:20:55;90497.81;;;18.14;79.89
9935;BME280;5006;41.828;23.478;2022-08-03T01:24:16;90505.69;;;18.09;79.71
9935;BME280;5006;41.828;23.478;2022-08-03T01:25:35;90505.47;;;17.87;81.45
9935;BME280;5006;41.828;23.478;2022-08-03T01:26:59;90502.84;;;17.84;82.98
9935;BME280;5006;41.828;23.478;2022-08-03T01:28:21;90505.03;;;18.05;81.39
9935;BME280;5006;41.828;23.478;2022-08-03T01:29:59;90510.13;;;17.87;83.00
9935;BME280;5006;41.828;23.478;2022-08-03T01:31:09;90503.19;;;17.86;83.67
9935;BME280;5006;41.828;23.478;2022-08-03T01:32:17;90499.97;;;17.91;82.99
9935;BME280;5006;41.828;23.478;2022-08-03T01:33:29;90504.13;;;17.79;83.48
9935;BME280;5006;41.828;23.478;2022-08-03T01:34:44;90501.75;;;17.81;84.62
9935;BME280;5006;41.828;23.478;2022-08-03T01:35:56;90491.53;;;18.33;83.60
9935;BME280;5006;41.828;23.478;2022-08-03T01:37:05;90501.06;;;18.66;80.89
9935;BME280;5006;41.828;23.478;2022-08-03T01:38:13;90491.44;;;18.78;78.91
9935;BME280;5006;41.828;23.478;2022-08-03T01:39:20;90490.81;;;18.99;78.21
9935;BME280;5006;41.828;23.478;2022-08-03T01:40:26;90498.47;;;19.04;77.79
9935;BME280;5006;41.828;23.478;2022-08-03T01:41:36;90491.91;;;19.01;77.06
9935;BME280;5006;41.828;23.478;2022-08-03T01:42:42;90491.03;;;18.92;77.20
9935;BME280;5006;41.828;23.478;2022-08-03T01:43:49;90491.28;;;19.10;76.34
9935;BME280;5006;41.828;23.478;2022-08-03T01:44:56;90493.63;;;18.95;77.33
9935;BME280;5006;41.828;23.478;2022-08-03T01:46:05;90486.91;;;19.00;76.95
9935;BME280;5006;41.828;23.478;2022-08-03T01:47:11;90485.38;;;18.99;76.56
9935;BME280;5006;41.828;23.478;2022-08-03T01:48:18;90492.03;;;19.10;76.38
9935;BME280;5006;41.828;23.478;2022-08-03T01:49:24;90484.47;;;18.77;78.20
9935;BME280;5006;41.828;23.478;2022-08-03T01:50:31;90484.47;;;18.20;79.50
9935;BME280;5006;41.828;23.478;2022-08-03T01:51:38;90482.28;;;18.15;79.71
9935;BME280;5006;41.828;23.478;2022-08-03T01:52:47;90489.63;;;18.02;81.43
9935;BME280;5006;41.828;23.478;2022-08-03T01:53:52;90481.97;;;17.97;82.76
9935;BME280;5006;41.828;23.478;2022-08-03T01:54:59;90481.13;;;18.00;82.67
9935;BME280;5006;41.828;23.478;2022-08-03T01:56:05;90475.56;;;17.91;82.74
9935;BME280;5006;41.828;23.478;2022-08-03T01:57:12;90469.94;;;17.98;82.84
9935;BME280;5006;41.828;23.478;2022-08-03T01:58:17;90477.13;;;18.04;83.35
9935;BME280;5006;41.828;23.478;2022-08-03T01:59:25;90479.84;;;18.04;82.52
9935;BME280;5006;41.828;23.478;2022-08-03T02:00:32;90478.06;;;17.98;83.34
9935;BME280;5006;41.828;23.478;2022-08-03T02:01:42;90478.22;;;18.07;83.18
9935;BME280;5006;41.828;23.478;2022-08-03T02:02:48;90473.03;;;18.12;83.10
9935;BME280;5006;41.828;23.478;2022-08-03T02:03:57;90470.38;;;18.25;82.73
9935;BME280;5006;41.828;23.478;2022-08-03T02:05:05;90472.59;;;18.30;82.34
9935;BME280;5006;41.828;23.478;2022-08-03T02:06:12;90472.34;;;18.24;81.89
9935;BME280;5006;41.828;23.478;2022-08-03T02:07:18;90470.38;;;18.25;80.95
9935;BME280;5006;41.828;23.478;2022-08-03T02:08:24;90471.00;;;18.16;81.26
9935;BME280;5006;41.828;23.478;2022-08-03T02:09:30;90469.06;;;18.17;82.23
9935;BME280;5006;41.828;23.478;2022-08-03T02:10:40;90474.59;;;17.97;83.56
9935;BME280;5006;41.828;23.478;2022-08-03T02:11:46;90473.47;;;18.11;82.52
9935;BME280;5006;41.828;23.478;2022-08-03T02:12:52;90465.31;;;18.11;81.65
9935;BME280;5006;41.828;23.478;2022-08-03T02:13:59;90473.47;;;18.11;81.55
9935;BME280;5006;41.828;23.478;2022-08-03T02:15:07;90475.75;;;18.12;81.14
9935;BME280;5006;41.828;23.478;2022-08-03T02:16:15;90476.63;;;17.93;82.89
9935;BME280;5006;41.828;23.478;2022-08-03T02:17:24;90471.31;;;17.90;82.67
9935;BME280;5006;41.828;23.478;2022-08-03T02:18:31;90474.97;;;17.83;83.16
9935;BME280;5006;41.828;23.478;2022-08-03T02:19:37;90474.53;;;17.85;83.96
9935;BME280;5006;41.828;23.478;2022-08-03T02:20:45;90475.13;;;17.76;84.98
9935;BME280;5006;41.828;23.478;2022-08-03T02:21:52;90477.44;;;17.78;85.25
9935;BME280;5006;41.828;23.478;2022-08-03T02:22:57;90469.09;;;18.01;84.16
9935;BME280;5006;41.828;23.478;2022-08-03T02:24:04;90475.22;;;17.89;83.92
9935;BME280;5006;41.828;23.478;2022-08-03T02:25:11;90483.25;;;18.08;83.38
9935;BME280;5006;41.828;23.478;2022-08-03T02:26:19;90478.06;;;17.98;83.58
9935;BME280;5006;41.828;23.478;2022-08-03T02:27:26;90486.88;;;18.18;83.14
9935;BME280;5006;41.828;23.478;2022-08-03T02:28:36;90479.69;;;17.95;83.45
9935;BME280;5006;41.828;23.478;2022-08-03T02:29:42;90480.78;;;17.98;83.85
9935;BME280;5006;41.828;23.478;2022-08-03T02:30:53;90477.81;;;17.92;83.86
9935;BME280;5006;41.828;23.478;2022-08-03T02:31:59;90486.16;;;17.85;84.68
9935;BME280;5006;41.828;23.478;2022-08-03T02:33:11;90476.06;;;17.86;84.94
9935;BME280;5006;41.828;23.478;2022-08-03T02:34:20;90483.53;;;17.82;86.46
9935;BME280;5006;41.828;23.478;2022-08-03T02:35:30;90485.72;;;17.87;84.14
9935;BME280;5006;41.828;23.478;2022-08-03T02:36:37;90480.91;;;17.94;83.52
9935;BME280;5006;41.828;23.478;2022-08-03T02:37:47;90482.41;;;17.79;84.80
9935;BME280;5006;41.828;23.478;2022-08-03T02:38:57;90475.69;;;18.00;83.89
9935;BME280;5006;41.828;23.478;2022-08-03T02:40:06;90483.00;;;18.03;83.65
9935;BME280;5006;41.828;23.478;2022-08-03T02:41:14;90487.19;;;17.75;85.46
9935;BME280;5006;41.828;23.478;2022-08-03T02:42:22;90484.38;;;17.79;84.82
9935;BME280;5006;41.828;23.478;2022-08-03T02:43:31;90477.00;;;17.95;84.38
9935;BME280;5006;41.828;23.478;2022-08-03T02:44:39;90481.06;;;17.87;84.66
9935;BME280;5006;41.828;23.478;2022-08-03T02:45:48;90477.94;;;17.89;84.90
9935;BME280;5006;41.828;23.478;2022-08-03T02:46:59;90485.56;;;17.46;86.56
9935;BME280;5006;41.828;23.478;2022-08-03T02:48:05;90471.84;;;17.53;87.14
9935;BME280;5006;41.828;23.478;2022-08-03T02:49:15;90471.00;;;17.40;87.94
9935;BME280;5006;41.828;23.478;2022-08-03T02:50:22;90474.50;;;17.56;87.62
9935;BME280;5006;41.828;23.478;2022-08-03T02:51:32;90474.22;;;17.51;87.53
9935;BME280;5006;41.828;23.478;2022-08-03T02:52:37;90466.25;;;17.44;88.37
9935;BME280;5006;41.828;23.478;2022-08-03T02:53:45;90471.91;;;17.65;87.20
9935;BME280;5006;41.828;23.478;2022-08-03T02:54:52;90469.88;;;17.53;87.48
9935;BME280;5006;41.828;23.478;2022-08-03T02:56:00;90467.63;;;17.52;87.82
9935;BME280;5006;41.828;23.478;2022-08-03T02:57:06;90470.03;;;17.94;87.39
9935;BME280;5006;41.828;23.478;2022-08-03T02:58:16;90464.94;;;18.25;85.14
9935;BME280;5006;41.828;23.478;2022-08-03T02:59:23;90468.94;;;18.36;83.39
9935;BME280;5006;41.828;23.478;2022-08-03T03:00:30;90463.97;;;18.47;82.24
9935;BME280;5006;41.828;23.478;2022-08-03T03:01:37;90466.84;;;18.28;82.84
9935;BME280;5006;41.828;23.478;2022-08-03T03:02:42;90464.38;;;18.17;83.86
9935;BME280;5006;41.828;23.478;2022-08-03T03:03:48;90459.84;;;18.43;83.48
9935;BME280;5006;41.828;23.478;2022-08-03T03:04:56;90469.34;;;18.35;83.05
9935;BME280;5006;41.828;23.478;2022-08-03T03:06:03;90468.50;;;18.38;82.70
9935;BME280;5006;41.828;23.478;2022-08-03T03:07:11;90463.53;;;18.49;82.08
9935;BME280;5006;41.828;23.478;2022-08-03T03:08:18;90464.47;;;18.30;83.57
9935;BME280;5006;41.828;23.478;2022-08-03T03:09:24;90459.84;;;18.43;82.65
9935;BME280;5006;41.828;23.478;2022-08-03T03:10:30;90467.25;;;18.55;81.76
9935;BME280;5006;41.828;23.478;2022-08-03T03:11:37;90472.59;;;18.58;81.24
9935;BME280;5006;41.828;23.478;2022-08-03T03:12:44;90462.00;;;18.48;82.03
9935;BME280;5006;41.828;23.478;2022-08-03T03:13:50;90474.78;;;18.35;82.81
9935;BME280;5006;41.828;23.478;2022-08-03T03:14:57;90465.97;;;18.31;83.16
9935;BME280;5006;41.828;23.478;2022-08-03T03:16:03;90470.50;;;18.21;82.83
9935;BME280;5006;41.828;23.478;2022-08-03T03:17:10;90467.16;;;18.58;81.90
9935;BME280;5006;41.828;23.478;2022-08-03T03:18:16;90473.66;;;18.61;82.00
9935;BME280;5006;41.828;23.478;2022-08-03T03:19:22;90474.03;;;18.75;80.15
9935;BME280;5006;41.828;23.478;2022-08-03T03:20:29;90478.06;;;18.42;81.14
9935;BME280;5006;41.828;23.478;2022-08-03T03:21:37;90476.66;;;18.22;83.37
9935;BME280;5006;41.828;23.478;2022-08-03T03:22:42;90482.22;;;18.47;82.11
9935;BME280;5006;41.828;23.478;2022-08-03T03:23:49;90482.59;;;18.61;82.06
9935;BME280;5006;41.828;23.478;2022-08-03T03:24:55;90486.00;;;18.78;80.32
9935;BME280;5006;41.828;23.478;2022-08-03T03:26:01;90488.91;;;18.71;80.73
9935;BME280;5006;41.828;23.478;2022-08-03T03:27:07;90487.97;;;18.49;81.95
9935;BME280;5006;41.828;23.478;2022-08-03T03:28:13;90489.72;;;18.43;81.99
9935;BME280;5006;41.828;23.478;2022-08-03T03:29:18;90490.50;;;18.56;82.09
9935;BME280;5006;41.828;23.478;2022-08-03T03:30:24;90485.56;;;18.67;81.27
9935;BME280;5006;41.828;23.478;2022-08-03T03:31:29;90482.19;;;18.75;81.31
9935;BME280;5006;41.828;23.478;2022-08-03T03:32:34;90486.38;;;18.64;81.05
9935;BME280;5006;41.828;23.478;2022-08-03T03:33:40;90487.88;;;18.52;81.80
9935;BME280;5006;41.828;23.478;2022-08-03T03:34:46;90485.25;;;18.77;81.19
9935;BME280;5006;41.828;23.478;2022-08-03T03:35:52;90480.25;;;18.88;80.61
9935;BME280;5006;41.828;23.478;2022-08-03T03:36:58;90493.00;;;19.04;80.46
9935;BME280;5006;41.828;23.478;2022-08-03T03:38:06;90483.31;;;18.90;80.63
9935;BME280;5006;41.828;23.478;2022-08-03T03:39:11;90488.56;;;19.10;79.95
9935;BME280;5006;41.828;23.478;2022-08-03T03:40:17;90483.53;;;19.08;79.75
9935;BME280;5006;41.828;23.478;2022-08-03T03:41:23;90487.59;;;19.16;80.57
9935;BME280;5006;41.828;23.478;2022-08-03T03:42:28;90489.09;;;19.05;82.06
9935;BME280;5006;41.828;23.478;2022-08-03T03:43:35;90486.09;;;19.28;81.02
9935;BME280;5006;41.828;23.478;2022-08-03T03:44:40;90489.19;;;19.14;81.02
9935;BME280;5006;41.828;23.478;2022-08-03T03:45:46;90487.31;;;19.39;79.98
9935;BME280;5006;41.828;23.478;2022-08-03T03:46:51;90487.63;;;19.29;81.44
9935;BME280;5006;41.828;23.478;2022-08-03T03:47:58;90489.16;;;19.30;81.65
9935;BME280;5006;41.828;23.478;2022-08-03T03:49:04;90494.38;;;19.49;80.06
9935;BME280;5006;41.828;23.478;2022-08-03T03:50:10;90496.88;;;19.56;79.72
9935;BME280;5006;41.828;23.478;2022-08-03T03:51:17;90496.97;;;19.65;79.43
9935;BME280;5006;41.828;23.478;2022-08-03T03:52:23;90497.19;;;19.71;79.73
9935;BME280;5006;41.828;23.478;2022-08-03T03:53:28;90500.88;;;19.76;79.11
9935;BME280;5006;41.828;23.478;2022-08-03T03:54:41;90500.63;;;19.96;78.73
9935;BME280;5006;41.828;23.478;2022-08-03T03:55:47;90499.16;;;19.58;80.12
9935;BME280;5006;41.828;23.478;2022-08-03T03:56:51;90500.13;;;19.64;79.63
9935;BME280;5006;41.828;23.478;2022-08-03T03:57:58;90506.00;;;19.74;79.29
9935;BME280;5006;41.828;23.478;2022-08-03T03:59:04;90498.25;;;19.73;79.24
9935;BME280;5006;41.828;23.478;2022-08-03T04:00:11;90504.78;;;19.88;78.73
9935;BME280;5006;41.828;23.478;2022-08-03T04:01:16;90502.53;;;19.74;79.46
9935;BME280;5006;41.828;23.478;2022-08-03T04:02:22;90505.31;;;19.83;79.73
9935;BME280;5006;41.828;23.478;2022-08-03T04:03:27;90508.25;;;20.01;79.71
9935;BME280;5006;41.828;23.478;2022-08-03T04:04:33;90513.59;;;19.92;81.04
9935;BME280;5006;41.828;23.478;2022-08-03T04:05:57;90509.13;;;20.10;79.53
9935;BME280;5006;41.828;23.478;2022-08-03T04:07:23;90515.31;;;20.11;78.79
9935;BME280;5006;41.828;23.478;2022-08-03T04:08:42;90515.22;;;20.14;77.89
9935;BME280;5006;41.828;23.478;2022-08-03T04:10:10;90508.09;;;20.29;78.61
9935;BME280;5006;41.828;23.478;2022-08-03T04:11:38;90505.44;;;20.38;78.94
9935;BME280;5006;41.828;23.478;2022-08-03T04:12:46;90508.59;;;20.37;78.82
9935;BME280;5006;41.828;23.478;2022-08-03T04:13:56;90510.00;;;20.41;78.91
9935;BME280;5006;41.828;23.478;2022-08-03T04:15:04;90517.44;;;20.41;78.95
9935;BME280;5006;41.828;23.478;2022-08-03T04:16:12;90513.53;;;20.63;77.60
9935;BME280;5006;41.828;23.478;2022-08-03T04:17:21;90506.88;;;20.64;77.10
9935;BME280;5006;41.828;23.478;2022-08-03T04:18:31;90516.28;;;20.85;76.66
9935;BME280;5006;41.828;23.478;2022-08-03T04:19:42;90521.31;;;20.86;77.08
9935;BME280;5006;41.828;23.478;2022-08-03T04:20:49;90517.84;;;20.73;77.25
9935;BME280;5006;41.828;23.478;2022-08-03T04:21:58;90514.25;;;20.42;79.03
9935;BME280;5006;41.828;23.478;2022-08-03T04:23:06;90513.00;;;20.22;77.41
9935;BME280;5006;41.828;23.478;2022-08-03T04:24:12;90523.38;;;20.02;76.19
9935;BME280;5006;41.828;23.478;2022-08-03T04:25:20;90520.22;;;20.03;76.44
9935;BME280;5006;41.828;23.478;2022-08-03T04:26:30;90517.41;;;20.19;75.84
9935;BME280;5006;41.828;23.478;2022-08-03T04:27:40;90518.19;;;20.07;76.01
9935;BME280;5006;41.828;23.478;2022-08-03T04:28:46;90529.13;;;20.29;75.37
9935;BME280;5006;41.828;23.478;2022-08-03T04:29:54;90523.69;;;20.16;74.61
9935;BME280;5006;41.828;23.478;2022-08-03T04:31:02;90522.84;;;20.19;74.45
9935;BME280;5006;41.828;23.478;2022-08-03T04:32:09;90522.78;;;20.66;73.15
9935;BME280;5006;41.828;23.478;2022-08-03T04:33:15;90523.41;;;21.04;72.38
9935;BME280;5006;41.828;23.478;2022-08-03T04:34:21;90532.31;;;21.26;71.55
9935;BME280;5006;41.828;23.478;2022-08-03T04:35:28;90530.19;;;21.51;70.74
9935;BME280;5006;41.828;23.478;2022-08-03T04:36:44;90527.72;;;21.44;70.53
9935;BME280;5006;41.828;23.478;2022-08-03T04:37:52;90528.78;;;20.95;72.32
9935;BME280;5006;41.828;23.478;2022-08-03T04:39:03;90525.75;;;21.14;71.36
9935;BME280;5006;41.828;23.478;2022-08-03T04:40:12;90526.69;;;21.20;71.48
9935;BME280;5006;41.828;23.478;2022-08-03T04:41:18;90529.22;;;21.36;71.76
9935;BME280;5006;41.828;23.478;2022-08-03T04:42:24;90532.31;;;21.26;72.52
9935;BME280;5006;41.828;23.478;2022-08-03T04:43:31;90531.94;;;21.36;72.65
9935;BME280;5006;41.828;23.478;2022-08-03T04:44:40;90538.66;;;21.75;71.79
9935;BME280;5006;41.828;23.478;2022-08-03T04:45:48;90527.91;;;21.80;72.25
9935;BME280;5006;41.828;23.478;2022-08-03T04:46:55;90530.69;;;21.89;71.62
9935;BME280;5006;41.828;23.478;2022-08-03T04:48:02;90529.16;;;21.88;70.14
9935;BME280;5006;41.828;23.478;2022-08-03T04:49:08;90538.19;;;22.07;68.28
9935;BME280;5006;41.828;23.478;2022-08-03T04:50:14;90527.75;;;22.32;66.79
9935;BME280;5006;41.828;23.478;2022-08-03T04:51:20;90539.41;;;22.06;67.85
9935;BME280;5006;41.828;23.478;2022-08-03T04:52:25;90540.00;;;22.58;67.69
9935;BME280;5006;41.828;23.478;2022-08-03T04:53:30;90539.25;;;22.57;66.12
9935;BME280;5006;41.828;23.478;2022-08-03T04:54:42;90541.13;;;22.30;67.01
9935;BME280;5006;41.828;23.478;2022-08-03T04:55:47;90538.56;;;22.35;67.17
9935;BME280;5006;41.828;23.478;2022-08-03T04:56:52;90537.28;;;22.85;65.82
9935;BME280;5006;41.828;23.478;2022-08-03T04:57:58;90535.31;;;22.67;65.23
9935;BME280;5006;41.828;23.478;2022-08-03T04:59:03;90543.34;;;22.98;64.13
9935;BME280;5006;41.828;23.478;2022-08-03T05:00:09;90537.56;;;22.96;64.59
9935;BME280;5006;41.828;23.478;2022-08-03T05:01:15;90537.59;;;22.87;64.08
9935;BME280;5006;41.828;23.478;2022-08-03T05:02:21;90543.19;;;22.92;64.51
9935;BME280;5006;41.828;23.478;2022-08-03T05:03:27;90534.53;;;23.03;63.67
9935;BME280;5006;41.828;23.478;2022-08-03T05:04:31;90537.75;;;23.19;63.46
9935;BME280;5006;41.828;23.478;2022-08-03T05:05:37;90534.69;;;23.35;62.91
9935;BME280;5006;41.828;23.478;2022-08-03T05:06:42;90536.97;;;23.10;63.40
9935;BME280;5006;41.828;23.478;2022-08-03T05:07:47;90536.84;;;23.13;63.47
9935;BME280;5006;41.828;23.478;2022-08-03T05:08:53;90538.34;;;23.14;62.96
9935;BME280;5006;41.828;23.478;2022-08-03T05:10:00;90533.56;;;23.60;61.66
9935;BME280;5006;41.828;23.478;2022-08-03T05:11:05;90530.69;;;23.54;61.25
9935;BME280;5006;41.828;23.478;2022-08-03T05:12:11;90536.88;;;23.91;61.11
9935;BME280;5006;41.828;23.478;2022-08-03T05:13:16;90536.47;;;24.07;61.25
9935;BME280;5006;41.828;23.478;2022-08-03T05:14:21;90537.31;;;23.89;61.18
9935;BME280;5006;41.828;23.478;2022-08-03T05:15:27;90523.75;;;24.50;60.25
9935;BME280;5006;41.828;23.478;2022-08-03T05:16:32;90531.44;;;24.38;59.85
9935;BME280;5006;41.828;23.478;2022-08-03T05:17:38;90538.13;;;24.13;60.27
9935;BME280;5006;41.828;23.478;2022-08-03T05:18:43;90543.06;;;24.33;59.99
9935;BME280;5006;41.828;23.478;2022-08-03T05:19:49;90534.44;;;23.84;60.63
9935;BME280;5006;41.828;23.478;2022-08-03T05:20:55;90534.47;;;23.66;60.83
9935;BME280;5006;41.828;23.478;2022-08-03T05:22:00;90537.34;;;24.13;60.16
9935;BME280;5006;41.828;23.478;2022-08-03T05:23:07;90525.41;;;24.57;58.69
9935;BME280;5006;41.828;23.478;2022-08-03T05:24:12;90528.66;;;24.55;57.68
9935;BME280;5006;41.828;23.478;2022-08-03T05:25:19;90529.31;;;24.09;58.36
9935;BME280;5006;41.828;23.478;2022-08-03T05:26:24;90529.25;;;24.50;57.90
9935;BME280;5006;41.828;23.478;2022-08-03T05:27:30;90533.66;;;24.25;57.84
9935;BME280;5006;41.828;23.478;2022-08-03T05:28:35;90533.50;;;23.87;58.50
9935;BME280;5006;41.828;23.478;2022-08-03T05:29:40;90529.38;;;23.91;58.55
9935;BME280;5006;41.828;23.478;2022-08-03T05:30:45;90531.81;;;23.98;58.02
9935;BME280;5006;41.828;23.478;2022-08-03T05:31:51;90536.03;;;24.41;57.42
9935;BME280;5006;41.828;23.478;2022-08-03T05:32:56;90530.72;;;24.37;57.49
9935;BME280;5006;41.828;23.478;2022-08-03T05:34:03;90530.72;;;24.84;56.74
9935;BME280;5006;41.828;23.478;2022-08-03T05:35:08;90529.78;;;24.63;56.87
9935;BME280;5006;41.828;23.478;2022-08-03T05:36:14;90533.66;;;24.57;56.65
9935;BME280;5006;41.828;23.478;2022-08-03T05:37:21;90532.75;;;24.51;55.98
9935;BME280;5006;41.828;23.478;2022-08-03T05:38:26;90534.31;;;24.43;55.81
9935;BME280;5006;41.828;23.478;2022-08-03T05:39:32;90536.53;;;25.00;55.13
9935;BME280;5006;41.828;23.478;2022-08-03T05:40:38;90533.13;;;24.91;55.47
9935;BME280;5006;41.828;23.478;2022-08-03T05:41:44;90540.38;;;24.79;55.22
9935;BME280;5006;41.828;23.478;2022-08-03T05:42:48;90539.09;;;25.27;54.42
9935;BME280;5006;41.828;23.478;2022-08-03T05:43:54;90542.91;;;25.06;54.59
9935;BME280;5006;41.828;23.478;2022-08-03T05:45:03;90538.34;;;25.41;55.13
9935;BME280;5006;41.828;23.478;2022-08-03T05:46:16;90548.41;;;25.44;55.45
9935;BME280;5006;41.828;23.478;2022-08-03T05:47:21;90544.13;;;25.29;55.40
9935;BME280;5006;41.828;23.478;2022-08-03T05:48:26;90542.66;;;25.71;54.89
9935;BME280;5006;41.828;23.478;2022-08-03T05:49:32;90547.47;;;25.47;55.41
9935;BME280;5006;41.828;23.478;2022-08-03T05:50:38;90554.22;;;26.04;54.81
9935;BME280;5006;41.828;23.478;2022-08-03T05:51:42;90547.66;;;26.31;53.44
9935;BME280;5006;41.828;23.478;2022-08-03T05:52:49;90553.47;;;27.67;52.04
9935;BME280;5006;41.828;23.478;2022-08-03T05:53:55;90553.13;;;27.34;52.27
9935;BME280;5006;41.828;23.478;2022-08-03T05:55:00;90551.34;;;27.11;53.69
9935;BME280;5006;41.828;23.478;2022-08-03T05:56:06;90553.94;;;27.00;54.27
9935;BME280;5006;41.828;23.478;2022-08-03T05:57:13;90557.19;;;26.64;55.84
9935;BME280;5006;41.828;23.478;2022-08-03T05:58:18;90558.66;;;26.31;55.13
9935;BME280;5006;41.828;23.478;2022-08-03T05:59:23;90552.06;;;26.08;55.42
9935;BME280;5006;41.828;23.478;2022-08-03T06:00:29;90549.78;;;26.90;54.70
9935;BME280;5006;41.828;23.478;2022-08-03T06:01:34;90560.13;;;26.61;54.49
9935;BME280;5006;41.828;23.478;2022-08-03T06:02:40;90551.31;;;26.57;55.16
9935;BME280;5006;41.828;23.478;2022-08-03T06:03:45;90554.31;;;26.10;55.44